Time;durP1;ratioP1;P1;durP2;ratioP2;P2;SDS_P1;SDS_P2;PMS_P1;PMS_P2;Temp;Humidity;BMP_temperature;BMP_pressure;BME280_temperature;BME280_humidity;BME280_pressure;Samples;Min_cycle;Max_cycle;Signal;HPM_P1;HPM_P2
2021/07/22 00:07:20;;;;;;;10.03;5.35;;;;;;;18.22;71.89;101130.05;20740466;83;99604;-81
2021/07/22 00:37:21;;;;;;;10.00;5.57;;;;;;;18.12;72.43;101123.95;20889602;83;99566;-81
2021/07/22 01:07:22;;;;;;;9.40;5.35;;;;;;;18.07;72.74;101126.59;20906084;82;99495;-81
2021/07/22 01:37:23;;;;;;;13.00;6.40;;;;;;;17.97;73.26;101114.93;20926813;82;99346;-81
2021/07/22 02:07:23;;;;;;;11.18;6.05;;;;;;;17.91;74.52;101107.41;20924310;83;99533;-81
2021/07/22 02:37:24;;;;;;;11.80;6.37;;;;;;;17.82;75.08;101107.87;20915222;83;99788;-80
2021/07/22 03:07:25;;;;;;;11.95;7.55;;;;;;;17.73;75.50;101118.70;20910986;82;99514;-81
2021/07/22 03:37:26;;;;;;;15.63;7.40;;;;;;;17.64;76.11;101123.12;20934034;82;99624;-80
2021/07/22 04:07:27;;;;;;;13.58;7.62;;;;;;;17.67;76.28;101116.76;20938612;82;99513;-80
2021/07/22 04:37:28;;;;;;;15.13;8.80;;;;;;;17.80;77.26;101120.63;20927578;83;99649;-81
2021/07/22 05:07:29;;;;;;;16.52;8.80;;;;;;;18.04;77.01;101129.41;20889924;82;99763;-82
2021/07/22 05:37:31;;;;;;;27.13;11.18;;;;;;;18.39;76.81;101124.94;20886196;83;99475;-82
2021/07/22 06:07:31;;;;;;;15.23;8.50;;;;;;;18.82;75.70;101119.91;20745122;83;100195;-80
2021/07/22 06:37:44;;;;;;;16.40;8.33;;;;;;;19.38;72.85;101130.97;20757629;83;99855;-82
2021/07/22 07:07:45;;;;;;;22.03;9.47;;;;;;;19.66;74.19;101137.55;20753532;83;99817;-83
2021/07/22 07:37:47;;;;;;;16.90;7.58;;;;;;;19.68;74.79;101129.55;20705040;83;99592;-84
2021/07/22 08:07:48;;;;;;;18.13;7.90;;;;;;;20.16;72.67;101130.02;20772187;83;99773;-82
2021/07/22 08:37:49;;;;;;;14.33;7.77;;;;;;;21.00;69.67;101138.25;20834345;83;99615;-81
2021/07/22 09:07:50;;;;;;;11.80;6.55;;;;;;;22.39;65.52;101121.59;20952673;82;99372;-82
2021/07/22 09:37:56;;;;;;;11.40;6.30;;;;;;;24.06;61.07;101129.13;20990952;82;99736;-82
2021/07/22 10:07:58;;;;;;;12.68;6.00;;;;;;;26.08;58.02;101104.45;20853900;83;99534;-80
2021/07/22 10:38:14;;;;;;;10.43;6.17;;;;;;;28.59;51.38;101064.66;20817115;83;99733;-82
2021/07/22 11:08:25;;;;;;;11.05;5.10;;;;;;;30.49;46.89;101043.38;20971608;82;99704;-83
2021/07/22 11:38:26;;;;;;;10.28;5.15;;;;;;;29.25;46.48;101027.66;20959094;83;99929;-84
2021/07/22 12:08:27;;;;;;;14.23;5.08;;;;;;;26.68;48.38;101022.80;20945596;82;99699;-83
2021/07/22 12:38:30;;;;;;;10.28;5.92;;;;;;;25.13;51.74;101004.58;20854283;83;99840;-81
2021/07/22 13:08:32;;;;;;;10.35;5.83;;;;;;;25.32;51.08;100997.02;20936400;82;99853;-83
2021/07/22 13:38:39;;;;;;;10.10;5.67;;;;;;;25.26;50.87;100965.86;20924203;83;100009;-83
2021/07/22 14:08:36;;;;;;;10.30;5.42;;;;;;;26.00;48.68;100941.59;20746851;83;99888;-82
2021/07/22 14:38:37;;;;;;;10.30;5.75;;;;;;;26.16;48.59;100918.06;20736521;83;99769;-82
2021/07/22 15:08:38;;;;;;;9.95;5.60;;;;;;;25.64;49.01;100902.84;20858414;83;99899;-82
2021/07/22 15:38:43;;;;;;;11.85;5.25;;;;;;;24.84;49.50;100884.45;20968865;83;99541;-81
2021/07/22 16:08:44;;;;;;;9.78;4.80;;;;;;;25.28;48.86;100860.52;20957826;82;99807;-83
2021/07/22 16:38:45;;;;;;;9.08;5.05;;;;;;;25.12;48.86;100831.17;20918788;83;99263;-82
2021/07/22 17:08:46;;;;;;;8.88;5.30;;;;;;;24.57;51.48;100806.89;20746151;83;99524;-83
2021/07/22 17:38:47;;;;;;;10.03;5.10;;;;;;;24.01;51.39;100787.23;20724460;83;99467;-83
2021/07/22 18:08:48;;;;;;;12.60;6.63;;;;;;;23.56;53.17;100763.80;20888261;81;99733;-84
2021/07/22 18:38:49;;;;;;;12.20;6.42;;;;;;;23.08;54.56;100758.69;20935641;83;99727;-83
2021/07/22 19:08:50;;;;;;;12.37;6.28;;;;;;;22.46;56.75;100755.99;20890737;83;99731;-84
2021/07/22 19:38:51;;;;;;;11.05;6.10;;;;;;;21.99;57.92;100766.25;20921849;83;99856;-83
2021/07/22 20:08:53;;;;;;;12.50;6.45;;;;;;;21.62;59.00;100776.11;20911744;82;99458;-80
2021/07/22 20:38:53;;;;;;;11.88;6.30;;;;;;;21.17;60.25;100783.77;20894643;83;99714;-80
2021/07/22 21:08:54;;;;;;;15.13;6.90;;;;;;;20.66;62.65;100784.62;20900040;83;99654;-83
2021/07/22 21:38:55;;;;;;;12.37;7.47;;;;;;;19.91;64.66;100783.16;20894538;83;99757;-82
2021/07/22 22:08:56;;;;;;;16.10;8.18;;;;;;;19.07;66.51;100773.02;20758811;82;99752;-83
2021/07/22 22:38:57;;;;;;;14.20;7.62;;;;;;;18.53;68.54;100765.20;20728318;83;105999;-81
2021/07/22 23:08:59;;;;;;;16.60;8.50;;;;;;;18.11;69.89;100757.44;20811399;82;99944;-82
2021/07/22 23:39:02;;;;;;;16.50;9.43;;;;;;;17.90;71.55;100768.28;20864387;82;99624;-81
